首页
METAR-TAF:

METAR-TAF

机场 :

雅典, 喬治亞, 美国

纬度: 33-57-03N, 经度: 083-19-41W, 海拔: 246米

当前天气观测

该预报发布于36分钟前的19:51 UTC
风速7节,风向西转西北
温度 16°C
湿度 42%
气压 1018 hPa
能見度: 16.1公里
天空无云

METAR: KAHN 201951Z 30007KT 10SM CLR 16/03 A3007 RMK AO2 SLP181 T01610028

时间: 15:27 (20:27 UTC)

预报

该预报发布于2小时和48分钟前的17:39 UTC
预报有效从20日的 18点(UTC)到 21日的 18点(UTC)
风速9节,风向西转西北
能見度: 10公里
天空无云
从 21日的 0200点(UTC)
风速3节,风向多变
能見度: 10公里
少量云层高于25000英尺

TAF: KAHN 201739Z 2018/2118 29009KT P6SM SKC FM210200 VRB03KT P6SM FEW250

超过4000个机场的气象观测和天气预报(METAR&TAF报告)。

可查询的气象台以黄色和红色小点在地图上表示。

将鼠标移到小点上方,可查看气象台名称。

然后点击查看天气观测和预报。

如需切换地图:点击带黑十字的绿色按钮放大地图;点击带横线的绿色按钮缩小地图;或者点击绿色箭头查看邻近地区的地图。


METAR-TAF: